createdAt,value
2023-01-22T00:00:45.366Z,102495.06
2023-01-22T00:03:13.311Z,102493.31
2023-01-22T00:05:40.910Z,102488.09
2023-01-22T00:08:09.291Z,102485.44
2023-01-22T00:10:37.333Z,102479.34
2023-01-22T00:13:06.350Z,102481.97
2023-01-22T00:15:33.869Z,102502.09
2023-01-22T00:18:02.257Z,102489.88
2023-01-22T00:20:30.408Z,102485.56
2023-01-22T00:22:57.966Z,102471.47
2023-01-22T00:25:27.278Z,102471.53
2023-01-22T00:27:55.374Z,102466.41
2023-01-22T00:30:25.280Z,102468.09
2023-01-22T00:32:53.731Z,102469.97
2023-01-22T00:35:21.315Z,102467.34
2023-01-22T00:37:49.815Z,102477.75
2023-01-22T00:40:18.389Z,102480.31
2023-01-22T00:42:46.121Z,102482.06
2023-01-22T00:45:15.024Z,102472.34
2023-01-22T00:47:45.318Z,102477.59
2023-01-22T00:50:17.050Z,102484.59
2023-01-22T00:52:45.715Z,102467.97
2023-01-22T00:55:13.638Z,102456.66
2023-01-22T00:57:41.783Z,102459.25
2023-01-22T01:00:11.248Z,102466.31
2023-01-22T01:03:00.311Z,102460.16
2023-01-22T01:05:29.497Z,102461.88
2023-01-22T01:07:57.009Z,102461.88
2023-01-22T01:10:26.317Z,102462.78
2023-01-22T01:12:56.297Z,102465.34
2023-01-22T01:15:24.201Z,102463.59
2023-01-22T01:17:52.138Z,102451.38
2023-01-22T01:20:20.487Z,102453.97
2023-01-22T01:22:50.330Z,102451.38
2023-01-22T01:25:18.755Z,102447.91
2023-01-22T01:27:46.286Z,102449.63
2023-01-22T01:30:13.986Z,102442.66
2023-01-22T01:32:41.609Z,102446.19
2023-01-22T01:35:10.129Z,102445.25
2023-01-22T01:37:40.693Z,102441.78
2023-01-22T01:40:11.343Z,102442.66
2023-01-22T01:42:43.136Z,102441.81
2023-01-22T01:45:28.794Z,102437.38
2023-01-22T01:48:05.437Z,102440.00
2023-01-22T01:50:34.604Z,102434.81
2023-01-22T01:53:03.197Z,102439.09
2023-01-22T01:55:35.476Z,102431.19
2023-01-22T01:58:10.368Z,102429.53
2023-01-22T02:00:42.296Z,102433.03
2023-01-22T02:03:10.799Z,102430.44
2023-01-22T02:05:39.892Z,102438.28
2023-01-22T02:08:12.276Z,102428.66
2023-01-22T02:10:44.346Z,102433.06
2023-01-22T02:13:15.498Z,102438.28
2023-01-22T02:15:43.443Z,102429.63
2023-01-22T02:18:11.964Z,102433.13
2023-01-22T02:20:41.604Z,102435.72
2023-01-22T02:23:10.305Z,102423.50
2023-01-22T02:25:38.660Z,102434.00
2023-01-22T02:28:10.357Z,102433.09
2023-01-22T02:30:38.088Z,102421.75
2023-01-22T02:33:05.995Z,102427.94
2023-01-22T02:35:34.298Z,102430.59
2023-01-22T02:38:05.365Z,102426.19
2023-01-22T02:40:50.265Z,102425.31
2023-01-22T02:43:20.441Z,102428.78
2023-01-22T02:45:48.223Z,102425.44
2023-01-22T02:48:16.816Z,102421.94
2023-01-22T02:50:45.223Z,102426.31
2023-01-22T02:53:18.178Z,102432.41
2023-01-22T02:55:47.097Z,102439.41
2023-01-22T02:58:17.132Z,102435.94
2023-01-22T03:00:45.778Z,102425.50
2023-01-22T03:03:18.314Z,102428.06
2023-01-22T03:05:49.374Z,102435.03
2023-01-22T03:08:21.289Z,102426.25
2023-01-22T03:10:48.859Z,102427.13
2023-01-22T03:13:33.960Z,102422.81
2023-01-22T03:16:29.068Z,102420.22
2023-01-22T03:19:17.018Z,102426.31
2023-01-22T03:21:44.717Z,102411.50
2023-01-22T03:24:14.331Z,102414.13
2023-01-22T03:26:42.004Z,102417.63
2023-01-22T03:29:10.297Z,102405.34
2023-01-22T03:31:38.716Z,102408.09
2023-01-22T03:34:06.389Z,102401.22
2023-01-22T03:36:34.147Z,102409.00
2023-01-22T03:39:05.429Z,102405.53
2023-01-22T03:41:35.302Z,102405.53
2023-01-22T03:44:03.529Z,102410.84
2023-01-22T03:46:34.728Z,102413.59
2023-01-22T03:49:06.283Z,102410.94
2023-01-22T03:51:35.343Z,102408.28
2023-01-22T03:54:05.129Z,102406.50
2023-01-22T03:56:36.017Z,102411.81
2023-01-22T04:02:03.343Z,102405.81
2023-01-22T04:04:35.290Z,102420.63
2023-01-22T04:07:03.350Z,102420.59
2023-01-22T04:09:30.931Z,102432.00
2023-01-22T04:12:00.937Z,102424.03
2023-01-22T04:14:29.362Z,102424.97
2023-01-22T04:17:00.809Z,102417.97
2023-01-22T04:20:04.963Z,102417.94
2023-01-22T04:22:52.454Z,102415.31
2023-01-22T04:25:23.266Z,102418.91
2023-01-22T04:27:53.215Z,102416.28
2023-01-22T04:30:21.275Z,102417.16
2023-01-22T04:32:55.004Z,102411.88
2023-01-22T04:35:43.315Z,102412.69
2023-01-22T04:38:13.867Z,102408.41
2023-01-22T04:40:42.544Z,102408.34
2023-01-22T04:43:12.027Z,102417.06
2023-01-22T04:45:40.285Z,102421.44
2023-01-22T04:48:10.938Z,102423.25
2023-01-22T04:50:40.462Z,102424.97
2023-01-22T04:53:11.911Z,102427.66
2023-01-22T04:55:42.306Z,102426.75
2023-01-22T04:58:37.310Z,102422.44
2023-01-22T05:01:06.542Z,102413.75
2023-01-22T05:03:34.306Z,102416.47
2023-01-22T05:06:08.310Z,102418.06
2023-01-22T05:08:40.340Z,102419.00
2023-01-22T05:11:09.554Z,102418.13
2023-01-22T05:13:45.617Z,102411.13
2023-01-22T05:16:13.930Z,102416.41
2023-01-22T05:18:42.404Z,102419.81
2023-01-22T05:21:10.695Z,102424.16
2023-01-22T05:23:39.444Z,102420.63
2023-01-22T05:26:13.299Z,102420.59
2023-01-22T05:28:53.677Z,102418.88
2023-01-22T05:31:31.307Z,102424.16
2023-01-22T05:34:15.594Z,102420.66
2023-01-22T05:36:43.762Z,102422.38
2023-01-22T05:39:18.373Z,102429.34
2023-01-22T05:41:47.283Z,102425.00
2023-01-22T05:44:17.040Z,102425.81
2023-01-22T05:46:50.594Z,102419.69
2023-01-22T05:50:08.122Z,102418.81
2023-01-22T05:52:37.412Z,102421.41
2023-01-22T05:55:05.796Z,102419.69
2023-01-22T05:57:45.364Z,102419.72
2023-01-22T06:00:17.770Z,102417.06
2023-01-22T06:02:50.206Z,102423.25
2023-01-22T06:05:18.318Z,102420.69
2023-01-22T06:07:51.347Z,102421.53
2023-01-22T06:10:29.724Z,102424.22
2023-01-22T06:12:59.339Z,102420.66
2023-01-22T06:15:28.234Z,102413.63
2023-01-22T06:18:05.286Z,102415.44
2023-01-22T06:20:33.453Z,102416.28
2023-01-22T06:23:01.295Z,102413.63
2023-01-22T06:25:31.883Z,102408.41
2023-01-22T06:28:09.726Z,102417.97
2023-01-22T06:30:40.135Z,102414.50
2023-01-22T06:33:08.282Z,102415.31
2023-01-22T06:35:35.879Z,102411.00
2023-01-22T06:38:04.353Z,102418.06
2023-01-22T06:40:35.757Z,102423.25
2023-01-22T06:43:05.075Z,102424.16
2023-01-22T06:45:34.274Z,102416.28
2023-01-22T06:48:08.883Z,102420.63
2023-01-22T06:50:38.287Z,102425.91
2023-01-22T06:53:06.332Z,102425.78
2023-01-22T06:55:35.845Z,102432.91
2023-01-22T06:58:03.720Z,102430.25
2023-01-22T07:00:32.104Z,102433.75
2023-01-22T07:03:02.052Z,102439.81
2023-01-22T07:05:31.264Z,102438.09
2023-01-22T07:07:58.862Z,102446.81
2023-01-22T07:10:26.747Z,102446.75
2023-01-22T07:12:55.819Z,102445.00
2023-01-22T07:15:23.699Z,102458.94
2023-01-22T07:17:53.359Z,102459.78
2023-01-22T07:20:22.192Z,102458.06
2023-01-22T07:22:51.335Z,102458.06
2023-01-22T07:25:20.346Z,102458.88
2023-01-22T07:27:47.967Z,102457.13
2023-01-22T07:30:16.272Z,102464.94
2023-01-22T07:32:44.016Z,102463.22
2023-01-22T07:35:36.023Z,102469.31
2023-01-22T07:38:04.943Z,102470.22
2023-01-22T07:40:32.987Z,102468.50
2023-01-22T07:43:00.627Z,102479.84
2023-01-22T07:45:29.361Z,102472.88
2023-01-22T07:47:58.699Z,102476.31
2023-01-22T07:50:30.629Z,102474.63
2023-01-22T07:53:00.478Z,102480.72
2023-01-22T07:55:31.224Z,102474.56
2023-01-22T07:58:00.355Z,102484.16
2023-01-22T08:00:28.072Z,102484.16
2023-01-22T08:02:59.829Z,102480.66
2023-01-22T08:05:28.894Z,102481.50
2023-01-22T08:07:57.267Z,102485.81
2023-01-22T08:10:24.802Z,102485.81
2023-01-22T08:12:53.756Z,102491.09
2023-01-22T08:15:21.677Z,102490.16
2023-01-22T08:17:50.673Z,102491.00
2023-01-22T08:20:19.287Z,102490.97
2023-01-22T08:22:48.041Z,102491.88
2023-01-22T08:25:16.110Z,102507.53
2023-01-22T08:27:43.724Z,102512.78
2023-01-22T08:30:14.288Z,102511.91
2023-01-22T08:32:45.311Z,102506.72
2023-01-22T08:35:15.314Z,102514.53
2023-01-22T08:37:43.953Z,102516.25
2023-01-22T08:40:12.419Z,102504.03
2023-01-22T08:42:40.348Z,102503.25
2023-01-22T08:48:29.335Z,102508.38
2023-01-22T08:51:01.833Z,102506.63
2023-01-22T08:53:34.269Z,102510.97
2023-01-22T08:56:01.875Z,102507.47
2023-01-22T08:58:32.262Z,102510.13
2023-01-22T09:01:01.331Z,102517.94
2023-01-22T09:03:31.358Z,102511.81
2023-01-22T09:05:59.811Z,102513.53
2023-01-22T09:08:28.292Z,102509.16
2023-01-22T09:10:56.259Z,102510.94
2023-01-22T09:13:24.355Z,102503.00
2023-01-22T09:15:52.271Z,102502.16
2023-01-22T09:18:19.797Z,102506.44
2023-01-22T09:20:49.030Z,102508.19
2023-01-22T09:23:17.101Z,102509.91
2023-01-22T09:25:47.291Z,102507.25
2023-01-22T09:28:15.003Z,102512.50
2023-01-22T09:30:44.130Z,102513.44
2023-01-22T09:33:13.315Z,102515.94
2023-01-22T09:35:40.867Z,102515.94
2023-01-22T09:38:14.397Z,102517.75
2023-01-22T09:40:46.646Z,102517.63
2023-01-22T09:43:26.061Z,102508.91
2023-01-22T09:45:59.376Z,102508.91
2023-01-22T09:48:34.633Z,102510.63
2023-01-22T09:51:02.455Z,102510.56
2023-01-22T09:53:31.859Z,102509.63
2023-01-22T09:56:00.733Z,102515.66
2023-01-22T09:58:28.380Z,102515.66
2023-01-22T10:01:00.435Z,102511.31
2023-01-22T10:03:33.264Z,102511.28
2023-01-22T10:06:05.415Z,102512.97
2023-01-22T10:08:47.209Z,102506.88
2023-01-22T10:11:14.757Z,102513.81
2023-01-22T10:13:42.438Z,102514.56
2023-01-22T10:16:14.291Z,102508.41
2023-01-22T10:18:44.747Z,102507.53
2023-01-22T10:21:19.232Z,102508.41
2023-01-22T10:23:50.322Z,102510.16
2023-01-22T10:26:24.913Z,102508.34
2023-01-22T10:28:56.324Z,102513.59
2023-01-22T10:31:27.387Z,102512.69
2023-01-22T10:34:00.125Z,102500.44
2023-01-22T10:36:28.001Z,102507.53
2023-01-22T10:39:14.345Z,102502.16
2023-01-22T10:41:42.380Z,102510.78
2023-01-22T10:44:23.783Z,102504.63
2023-01-22T10:46:54.328Z,102501.06
2023-01-22T10:49:26.270Z,102504.53
2023-01-22T10:51:57.341Z,102499.19
2023-01-22T10:54:31.277Z,102504.38
2023-01-22T10:57:08.194Z,102493.84
2023-01-22T10:59:39.967Z,102500.81
2023-01-22T11:02:16.667Z,102501.75
2023-01-22T11:04:44.399Z,102501.78
2023-01-22T11:07:17.079Z,102498.25
2023-01-22T11:09:50.299Z,102499.13
2023-01-22T11:12:47.030Z,102492.94
2023-01-22T11:20:42.991Z,102497.31
2023-01-22T11:23:19.237Z,102492.03
2023-01-22T11:25:57.913Z,102493.75
2023-01-22T11:28:41.433Z,102493.69
2023-01-22T11:31:24.582Z,102502.44
2023-01-22T11:34:10.338Z,102511.06
2023-01-22T11:36:46.858Z,102504.88
2023-01-22T11:39:35.096Z,102508.38
2023-01-22T11:42:14.972Z,102504.84
2023-01-22T11:45:00.188Z,102498.72
2023-01-22T11:47:48.223Z,102502.19
2023-01-22T11:50:26.518Z,102496.94
2023-01-22T11:53:06.477Z,102502.16
2023-01-22T11:55:52.027Z,102487.25
2023-01-22T11:58:29.923Z,102497.88
2023-01-22T12:01:15.774Z,102481.34
2023-01-22T12:04:03.257Z,102485.69
2023-01-22T12:06:55.629Z,102488.31
2023-01-22T12:09:27.239Z,102489.22
2023-01-22T12:12:08.880Z,102490.06
2023-01-22T12:14:51.434Z,102496.19
2023-01-22T12:17:33.071Z,102485.66
2023-01-22T12:20:45.014Z,102488.34
2023-01-22T12:23:16.483Z,102497.13
2023-01-22T12:25:53.271Z,102496.28
2023-01-22T12:28:27.818Z,102502.56
2023-01-22T12:31:01.252Z,102508.66
2023-01-22T12:33:31.651Z,102501.66
2023-01-22T12:36:03.316Z,102498.03
2023-01-22T12:38:42.630Z,102505.03
2023-01-22T12:41:24.948Z,102501.53
2023-01-22T12:43:57.261Z,102511.16
2023-01-22T12:46:31.502Z,102503.28
2023-01-22T12:49:06.353Z,102502.38
2023-01-22T12:51:40.484Z,102504.13
2023-01-22T12:54:11.332Z,102497.13
2023-01-22T12:56:39.722Z,102500.56
2023-01-22T12:59:07.368Z,102496.22
2023-01-22T13:01:37.309Z,102491.84
2023-01-22T13:04:08.418Z,102488.31
2023-01-22T13:06:38.177Z,102497.84
2023-01-22T13:09:08.224Z,102497.84
2023-01-22T13:11:38.925Z,102493.41
2023-01-22T13:14:17.548Z,102502.19
2023-01-22T13:16:54.548Z,102504.72
2023-01-22T13:19:24.298Z,102499.47
2023-01-22T13:21:55.256Z,102497.75
2023-01-22T13:24:23.325Z,102491.59
2023-01-22T13:26:56.561Z,102496.84
2023-01-22T13:29:28.489Z,102488.13
2023-01-22T13:31:58.518Z,102493.31
2023-01-22T13:34:28.273Z,102488.03
2023-01-22T13:36:57.340Z,102500.25
2023-01-22T13:39:27.729Z,102496.75
2023-01-22T13:41:57.488Z,102496.81
2023-01-22T13:44:27.389Z,102502.00
2023-01-22T13:46:55.424Z,102498.47
2023-01-22T13:49:27.564Z,102497.59
2023-01-22T13:52:00.339Z,102494.13
2023-01-22T13:54:31.702Z,102508.00
2023-01-22T13:57:00.945Z,102501.03
2023-01-22T13:59:34.975Z,102510.56
2023-01-22T14:02:13.447Z,102507.97
2023-01-22T14:04:42.486Z,102511.44
2023-01-22T14:07:17.631Z,102507.91
2023-01-22T14:09:46.673Z,102516.63
2023-01-22T14:12:17.351Z,102513.06
2023-01-22T14:14:45.599Z,102513.06
2023-01-22T14:17:26.929Z,102515.72
2023-01-22T14:19:56.496Z,102522.69
2023-01-22T14:22:24.422Z,102515.69
2023-01-22T14:24:52.847Z,102520.97
2023-01-22T14:27:20.930Z,102523.56
2023-01-22T14:29:48.580Z,102529.66
2023-01-22T14:32:16.449Z,102526.94
2023-01-22T14:34:43.998Z,102533.09
2023-01-22T14:37:17.031Z,102533.13
2023-01-22T14:39:44.616Z,102541.00
2023-01-22T14:42:12.181Z,102548.88
2023-01-22T14:44:39.766Z,102540.97
2023-01-22T14:47:07.396Z,102545.31
2023-01-22T14:49:36.246Z,102539.19
2023-01-22T14:52:04.293Z,102543.53
2023-01-22T14:54:34.066Z,102544.41
2023-01-22T14:57:04.110Z,102554.91
2023-01-22T14:59:31.840Z,102555.78
2023-01-22T15:02:00.782Z,102561.03
2023-01-22T15:04:28.413Z,102559.28
2023-01-22T15:06:56.225Z,102560.09
2023-01-22T15:09:48.122Z,102561.00
2023-01-22T15:12:17.104Z,102558.38
2023-01-22T15:14:44.685Z,102563.59
2023-01-22T15:17:12.225Z,102561.84
2023-01-22T15:19:41.644Z,102569.72
2023-01-22T15:22:09.453Z,102569.72
2023-01-22T15:24:39.268Z,102574.06
2023-01-22T15:27:07.531Z,102574.03
2023-01-22T15:29:36.446Z,102584.53
2023-01-22T15:32:05.293Z,102585.44
2023-01-22T15:34:34.793Z,102584.56
2023-01-22T15:37:03.507Z,102587.19
2023-01-22T15:39:31.106Z,102593.31
2023-01-22T15:41:58.841Z,102595.03
2023-01-22T15:44:30.344Z,102599.41
2023-01-22T15:47:00.973Z,102598.56
2023-01-22T15:49:32.726Z,102593.31
2023-01-22T15:52:00.321Z,102590.72
2023-01-22T15:54:28.367Z,102596.84
2023-01-22T15:56:56.287Z,102598.56
2023-01-22T15:59:24.824Z,102596.78
2023-01-22T16:01:54.262Z,102594.16
2023-01-22T16:04:24.154Z,102595.03
2023-01-22T16:06:52.558Z,102595.88
2023-01-22T16:09:20.373Z,102602.88
2023-01-22T16:11:48.607Z,102595.88
2023-01-22T16:14:16.241Z,102599.38
2023-01-22T16:16:43.884Z,102594.13
2023-01-22T16:19:13.193Z,102589.78
2023-01-22T16:21:44.954Z,102598.50
2023-01-22T16:24:12.622Z,102591.50
2023-01-22T16:26:40.293Z,102592.41
2023-01-22T16:29:09.255Z,102593.25
2023-01-22T16:31:37.555Z,102597.59
2023-01-22T16:34:12.456Z,102589.72
2023-01-22T16:36:43.045Z,102595.88
2023-01-22T16:39:18.395Z,102594.13
2023-01-22T16:41:48.272Z,102600.19
2023-01-22T16:44:18.277Z,102597.59
2023-01-22T16:46:47.706Z,102595.88
2023-01-22T16:49:18.260Z,102604.63
2023-01-22T16:51:49.082Z,102591.50
2023-01-22T16:54:21.281Z,102597.59
2023-01-22T16:56:51.342Z,102595.84
2023-01-22T16:59:19.284Z,102591.44
2023-01-22T17:01:47.358Z,102598.41
2023-01-22T17:04:15.259Z,102598.38
2023-01-22T17:06:47.999Z,102601.00
2023-01-22T17:09:17.530Z,102604.50
2023-01-22T17:11:47.033Z,102602.75
2023-01-22T17:14:19.021Z,102603.63
2023-01-22T17:16:46.837Z,102600.13
2023-01-22T17:19:14.956Z,102605.38
2023-01-22T17:21:42.986Z,102613.25
2023-01-22T17:24:13.226Z,102611.50
2023-01-22T17:26:42.889Z,102612.38
2023-01-22T17:29:11.144Z,102598.38
2023-01-22T17:31:40.385Z,102611.50
2023-01-22T17:34:10.957Z,102608.88
2023-01-22T17:36:39.755Z,102619.34
2023-01-22T17:39:07.985Z,102629.00
2023-01-22T17:41:37.350Z,102622.88
2023-01-22T17:44:05.149Z,102624.63
2023-01-22T17:46:34.991Z,102628.13
2023-01-22T17:49:06.311Z,102630.75
2023-01-22T17:51:35.680Z,102631.63
2023-01-22T17:54:09.279Z,102634.25
2023-01-22T17:56:42.874Z,102639.50
2023-01-22T17:59:13.294Z,102636.88
2023-01-22T18:01:42.307Z,102636.00
2023-01-22T18:04:11.711Z,102645.59
2023-01-22T18:06:40.647Z,102641.22
2023-01-22T18:09:09.487Z,102643.84
2023-01-22T18:11:39.440Z,102642.06
2023-01-22T18:14:09.597Z,102647.28
2023-01-22T18:16:40.743Z,102643.81
2023-01-22T18:19:10.426Z,102642.06
2023-01-22T18:21:39.535Z,102646.44
2023-01-22T18:24:09.423Z,102648.16
2023-01-22T18:26:39.055Z,102649.00
2023-01-22T18:29:07.267Z,102648.09
2023-01-22T18:31:35.588Z,102652.50
2023-01-22T18:34:05.899Z,102660.34
2023-01-22T18:36:36.174Z,102656.88
2023-01-22T18:39:06.619Z,102654.19
2023-01-22T18:41:34.475Z,102651.63
2023-01-22T18:44:03.826Z,102655.09
2023-01-22T18:46:34.033Z,102649.00
2023-01-22T18:49:06.391Z,102653.34
2023-01-22T18:51:34.861Z,102658.59
2023-01-22T18:54:04.747Z,102673.44
2023-01-22T18:56:32.789Z,102673.44
2023-01-22T18:59:01.177Z,102667.28
2023-01-22T19:01:32.352Z,102674.31
2023-01-22T19:04:01.874Z,102679.56
2023-01-22T19:06:31.663Z,102677.78
2023-01-22T19:09:03.695Z,102675.16
2023-01-22T19:11:32.889Z,102683.00
2023-01-22T19:14:02.916Z,102683.00
2023-01-22T19:16:34.375Z,102685.66
2023-01-22T19:19:11.151Z,102684.75
2023-01-22T19:21:40.379Z,102683.91
2023-01-22T19:24:11.467Z,102692.63
2023-01-22T19:26:39.581Z,102691.72
2023-01-22T19:29:09.647Z,102696.97
2023-01-22T19:31:42.057Z,102689.09
2023-01-22T19:34:15.166Z,102700.47
2023-01-22T19:36:42.780Z,102697.78
2023-01-22T19:39:13.247Z,102710.00
2023-01-22T19:41:41.604Z,102704.75
2023-01-22T19:44:11.731Z,102708.25
2023-01-22T19:46:41.382Z,102709.97
2023-01-22T19:49:13.266Z,102702.09
2023-01-22T19:51:41.361Z,102700.38
2023-01-22T19:54:10.179Z,102705.56
2023-01-22T19:56:39.573Z,102708.19
2023-01-22T19:59:09.169Z,102714.31
2023-01-22T20:01:37.381Z,102710.81
2023-01-22T20:04:08.874Z,102722.16
2023-01-22T20:06:36.780Z,102722.16
2023-01-22T20:09:04.678Z,102722.09
2023-01-22T20:11:32.324Z,102723.88
2023-01-22T20:14:01.332Z,102730.88
2023-01-22T20:16:30.342Z,102723.00
2023-01-22T20:18:58.761Z,102727.34
2023-01-22T20:21:28.248Z,102728.22
2023-01-22T20:23:57.334Z,102737.00
2023-01-22T20:26:24.997Z,102740.47
2023-01-22T20:28:52.554Z,102738.72
2023-01-22T20:31:23.429Z,102735.22
2023-01-22T20:33:52.533Z,102737.84
2023-01-22T20:36:21.431Z,102745.72
2023-01-22T20:38:52.862Z,102744.88
2023-01-22T20:41:22.475Z,102748.34
2023-01-22T20:43:51.470Z,102748.34
2023-01-22T20:46:20.842Z,102745.72
2023-01-22T20:48:49.386Z,102738.72
2023-01-22T20:51:19.879Z,102744.81
2023-01-22T20:53:50.394Z,102750.06
2023-01-22T20:56:22.478Z,102753.56
2023-01-22T20:58:57.012Z,102751.78
2023-01-22T21:01:25.081Z,102755.31
2023-01-22T21:03:53.703Z,102739.56
2023-01-22T21:06:21.445Z,102743.06
2023-01-22T21:08:52.343Z,102746.59
2023-01-22T21:11:22.113Z,102752.69
2023-01-22T21:13:51.153Z,102744.81
2023-01-22T21:16:23.061Z,102748.28
2023-01-22T21:18:50.652Z,102752.66
2023-01-22T21:21:20.783Z,102743.88
2023-01-22T21:23:52.010Z,102746.50
2023-01-22T21:26:23.618Z,102745.66
2023-01-22T21:28:54.347Z,102744.75
2023-01-22T21:31:23.259Z,102750.84
2023-01-22T21:33:52.526Z,102751.72
2023-01-22T21:36:22.261Z,102750.84
2023-01-22T21:38:51.206Z,102754.34
2023-01-22T21:41:19.576Z,102751.72
2023-01-22T21:44:06.213Z,102753.47
2023-01-22T21:46:37.127Z,102750.84
2023-01-22T21:49:16.179Z,102756.97
2023-01-22T21:51:46.128Z,102752.59
2023-01-22T21:54:17.409Z,102745.59
2023-01-22T21:56:46.136Z,102751.72
2023-01-22T21:59:14.259Z,102751.72
2023-01-22T22:01:42.342Z,102748.22
2023-01-22T22:04:11.310Z,102754.38
2023-01-22T22:06:39.372Z,102747.41
2023-01-22T22:09:09.557Z,102745.66
2023-01-22T22:11:39.347Z,102747.41
2023-01-22T22:14:09.848Z,102742.16
2023-01-22T22:16:37.804Z,102747.38
2023-01-22T22:19:07.644Z,102748.28
2023-01-22T22:21:36.791Z,102745.66
2023-01-22T22:24:05.082Z,102737.72
2023-01-22T22:26:33.272Z,102745.66
2023-01-22T22:29:02.772Z,102741.34
2023-01-22T22:31:30.755Z,102745.69
2023-01-22T22:33:59.101Z,102751.78
2023-01-22T22:36:30.266Z,102762.34
2023-01-22T22:38:58.272Z,102756.22
2023-01-22T22:41:27.665Z,102764.97
2023-01-22T22:43:56.584Z,102761.50
2023-01-22T22:46:27.179Z,102770.22
2023-01-22T22:48:57.276Z,102764.97
2023-01-22T22:51:26.944Z,102766.72
2023-01-22T22:53:57.458Z,102768.50
2023-01-22T22:56:26.314Z,102764.97
2023-01-22T22:58:55.175Z,102767.59
2023-01-22T23:01:26.279Z,102766.72
2023-01-22T23:03:54.674Z,102762.34
2023-01-22T23:06:24.461Z,102761.47
2023-01-22T23:08:54.060Z,102764.09
2023-01-22T23:11:26.280Z,102770.22
2023-01-22T23:13:55.254Z,102764.97
2023-01-22T23:16:25.379Z,102764.09
2023-01-22T23:18:54.278Z,102777.25
2023-01-22T23:21:24.659Z,102777.19
2023-01-22T23:23:53.191Z,102771.09
2023-01-22T23:26:28.309Z,102778.91
2023-01-22T23:28:57.879Z,102776.34
2023-01-22T23:31:28.386Z,102780.69
2023-01-22T23:33:57.663Z,102777.16
2023-01-22T23:36:26.486Z,102785.84
2023-01-22T23:38:54.736Z,102795.50
2023-01-22T23:41:22.556Z,102794.63
2023-01-22T23:43:50.928Z,102791.09
2023-01-22T23:46:22.237Z,102786.75
2023-01-22T23:48:51.596Z,102796.34
2023-01-22T23:51:20.214Z,102791.09
2023-01-22T23:53:51.557Z,102796.34
2023-01-22T23:56:20.550Z,102799.88
2023-01-22T23:58:48.992Z,102793.72
